sensor_id;sensor_type;location;lat;lon;timestamp;pressure;altitude;pressure_sealevel;temperature;humidity
40954;BME280;26686;50.130;8.710;2023-04-03T00:02:46;101199.25;;;7.11;55.77
40954;BME280;26686;50.130;8.710;2023-04-03T00:07:48;101219.66;;;7.26;56.51
40954;BME280;26686;50.130;8.710;2023-04-03T00:12:51;101211.97;;;7.04;56.48
40954;BME280;26686;50.130;8.710;2023-04-03T00:17:52;101219.28;;;7.17;56.54
40954;BME280;26686;50.130;8.710;2023-04-03T00:22:54;101230.03;;;7.14;56.47
40954;BME280;26686;50.130;8.710;2023-04-03T00:27:56;101205.72;;;7.05;57.08
40954;BME280;26686;50.130;8.710;2023-04-03T00:33:00;101228.88;;;7.19;57.45
40954;BME280;26686;50.130;8.710;2023-04-03T00:38:03;101234.25;;;7.18;57.40
40954;BME280;26686;50.130;8.710;2023-04-03T00:48:26;101240.47;;;7.17;57.79
40954;BME280;26686;50.130;8.710;2023-04-03T00:53:39;101225.97;;;7.06;57.51
40954;BME280;26686;50.130;8.710;2023-04-03T00:58:47;101239.69;;;7.15;57.49
40954;BME280;26686;50.130;8.710;2023-04-03T01:03:49;101230.34;;;7.07;57.17
40954;BME280;26686;50.130;8.710;2023-04-03T01:08:51;101227.31;;;7.15;57.39
40954;BME280;26686;50.130;8.710;2023-04-03T01:13:54;101219.91;;;7.04;57.72
40954;BME280;26686;50.130;8.710;2023-04-03T01:18:56;101213.88;;;7.01;57.29
40954;BME280;26686;50.130;8.710;2023-04-03T01:24:21;101228.00;;;7.19;56.40
40954;BME280;26686;50.130;8.710;2023-04-03T01:29:23;101209.47;;;7.01;56.70
40954;BME280;26686;50.130;8.710;2023-04-03T01:34:26;101230.34;;;7.07;56.55
40954;BME280;26686;50.130;8.710;2023-04-03T01:39:28;101233.69;;;7.11;56.80
40954;BME280;26686;50.130;8.710;2023-04-03T01:44:29;101221.16;;;6.97;57.06
40954;BME280;26686;50.130;8.710;2023-04-03T01:49:31;101232.91;;;7.09;56.53
40954;BME280;26686;50.130;8.710;2023-04-03T01:54:32;101216.63;;;6.99;56.72
40954;BME280;26686;50.130;8.710;2023-04-03T01:59:34;101232.03;;;7.08;56.84
40954;BME280;26686;50.130;8.710;2023-04-03T02:04:36;101239.38;;;7.03;56.83
40954;BME280;26686;50.130;8.710;2023-04-03T02:09:37;101217.25;;;7.04;57.42
40954;BME280;26686;50.130;8.710;2023-04-03T02:14:39;101222.63;;;7.03;57.06
40954;BME280;26686;50.130;8.710;2023-04-03T02:19:41;101230.50;;;7.04;57.34
40954;BME280;26686;50.130;8.710;2023-04-03T02:24:42;101237.28;;;7.10;57.67
40954;BME280;26686;50.130;8.710;2023-04-03T02:29:44;101217.41;;;7.01;57.73
40954;BME280;26686;50.130;8.710;2023-04-03T02:34:45;101243.56;;;7.07;58.11
40954;BME280;26686;50.130;8.710;2023-04-03T02:39:47;101230.09;;;6.95;58.19
40954;BME280;26686;50.130;8.710;2023-04-03T02:44:49;101234.84;;;7.05;58.32
40954;BME280;26686;50.130;8.710;2023-04-03T02:49:51;101230.25;;;6.92;58.54
40954;BME280;26686;50.130;8.710;2023-04-03T02:54:53;101222.69;;;6.84;58.83
40954;BME280;26686;50.130;8.710;2023-04-03T02:59:55;101247.38;;;7.02;59.54
40954;BME280;26686;50.130;8.710;2023-04-03T03:04:57;101227.81;;;6.87;59.39
40954;BME280;26686;50.130;8.710;2023-04-03T03:09:58;101241.69;;;6.92;58.58
40954;BME280;26686;50.130;8.710;2023-04-03T03:15:00;101247.56;;;6.80;58.38
40954;BME280;26686;50.130;8.710;2023-04-03T03:20:05;101232.16;;;6.70;57.96
40954;BME280;26686;50.130;8.710;2023-04-03T03:25:07;101242.13;;;6.83;58.03
40954;BME280;26686;50.130;8.710;2023-04-03T03:30:09;101216.72;;;6.61;57.82
40954;BME280;26686;50.130;8.710;2023-04-03T03:35:11;101243.72;;;6.68;57.45
40954;BME280;26686;50.130;8.710;2023-04-03T03:40:13;101244.59;;;6.68;57.22
40954;BME280;26686;50.130;8.710;2023-04-03T03:45:14;101250.50;;;6.56;56.33
40954;BME280;26686;50.130;8.710;2023-04-03T03:50:16;101229.75;;;6.47;56.78
40954;BME280;26686;50.130;8.710;2023-04-03T03:55:17;101231.13;;;6.17;56.11
40954;BME280;26686;50.130;8.710;2023-04-03T04:00:19;101251.94;;;6.44;56.18
40954;BME280;26686;50.130;8.710;2023-04-03T04:05:21;101248.22;;;6.29;55.70
40954;BME280;26686;50.130;8.710;2023-04-03T04:10:23;101254.72;;;6.22;56.11
40954;BME280;26686;50.130;8.710;2023-04-03T04:15:25;101265.78;;;6.30;55.77
40954;BME280;26686;50.130;8.710;2023-04-03T04:20:28;101252.28;;;6.17;56.59
40954;BME280;26686;50.130;8.710;2023-04-03T04:25:29;101262.44;;;6.27;56.12
40954;BME280;26686;50.130;8.710;2023-04-03T04:30:31;101272.38;;;6.22;55.94
40954;BME280;26686;50.130;8.710;2023-04-03T04:35:33;101278.94;;;6.13;56.44
40954;BME280;26686;50.130;8.710;2023-04-03T04:40:35;101275.31;;;5.95;57.24
40954;BME280;26686;50.130;8.710;2023-04-03T04:45:39;101250.16;;;5.86;56.48
40954;BME280;26686;50.130;8.710;2023-04-03T04:50:40;101279.16;;;5.88;56.86
40954;BME280;26686;50.130;8.710;2023-04-03T04:55:42;101254.91;;;5.78;56.38
40954;BME280;26686;50.130;8.710;2023-04-03T05:00:44;101274.56;;;5.91;56.26
40954;BME280;26686;50.130;8.710;2023-04-03T05:05:45;101290.56;;;5.88;56.63
40954;BME280;26686;50.130;8.710;2023-04-03T05:10:47;101288.72;;;5.90;56.60
40954;BME280;26686;50.130;8.710;2023-04-03T05:15:49;101279.09;;;5.69;56.81
40954;BME280;26686;50.130;8.710;2023-04-03T05:20:51;101290.25;;;5.75;56.74
40954;BME280;26686;50.130;8.710;2023-04-03T05:25:52;101310.00;;;5.87;57.51
40954;BME280;26686;50.130;8.710;2023-04-03T05:30:55;101311.97;;;5.82;57.11
40954;BME280;26686;50.130;8.710;2023-04-03T05:36:02;101313.69;;;5.83;57.02
40954;BME280;26686;50.130;8.710;2023-04-03T05:41:04;101302.09;;;5.66;56.93
40954;BME280;26686;50.130;8.710;2023-04-03T05:46:17;101322.81;;;5.76;57.41
40954;BME280;26686;50.130;8.710;2023-04-03T05:51:23;101322.03;;;5.74;57.39
40954;BME280;26686;50.130;8.710;2023-04-03T05:56:27;101329.28;;;5.69;57.06
40954;BME280;26686;50.130;8.710;2023-04-03T06:01:28;101352.06;;;5.71;57.46
40954;BME280;26686;50.130;8.710;2023-04-03T06:11:50;101351.09;;;5.74;58.06
40954;BME280;26686;50.130;8.710;2023-04-03T06:16:53;101346.47;;;5.79;57.78
40954;BME280;26686;50.130;8.710;2023-04-03T06:21:55;101365.78;;;6.01;57.15
40954;BME280;26686;50.130;8.710;2023-04-03T06:26:58;101365.38;;;6.11;56.18
40954;BME280;26686;50.130;8.710;2023-04-03T06:31:59;101359.81;;;6.17;56.21
40954;BME280;26686;50.130;8.710;2023-04-03T06:37:01;101384.53;;;6.36;56.35
40954;BME280;26686;50.130;8.710;2023-04-03T06:42:03;101397.97;;;6.51;56.53
40954;BME280;26686;50.130;8.710;2023-04-03T06:47:05;101391.91;;;6.49;55.29
40954;BME280;26686;50.130;8.710;2023-04-03T06:52:07;101389.63;;;6.60;55.40
40954;BME280;26686;50.130;8.710;2023-04-03T06:57:09;101390.84;;;6.72;55.43
40954;BME280;26686;50.130;8.710;2023-04-03T07:02:11;101388.50;;;6.66;54.76
40954;BME280;26686;50.130;8.710;2023-04-03T07:07:14;101407.94;;;6.84;54.32
40954;BME280;26686;50.130;8.710;2023-04-03T07:12:15;101399.50;;;6.95;54.22
40954;BME280;26686;50.130;8.710;2023-04-03T07:17:18;101410.69;;;7.01;54.12
40954;BME280;26686;50.130;8.710;2023-04-03T07:22:21;101420.97;;;7.07;55.24
40954;BME280;26686;50.130;8.710;2023-04-03T07:27:23;101417.66;;;7.21;54.60
40954;BME280;26686;50.130;8.710;2023-04-03T07:32:25;101430.47;;;7.31;54.53
40954;BME280;26686;50.130;8.710;2023-04-03T07:37:27;101432.78;;;7.56;52.92
40954;BME280;26686;50.130;8.710;2023-04-03T07:42:29;101446.38;;;7.67;52.22
40954;BME280;26686;50.130;8.710;2023-04-03T07:47:30;101434.06;;;7.66;50.64
40954;BME280;26686;50.130;8.710;2023-04-03T07:52:32;101416.56;;;7.62;51.01
40954;BME280;26686;50.130;8.710;2023-04-03T07:57:34;101444.81;;;7.98;50.81
40954;BME280;26686;50.130;8.710;2023-04-03T08:02:36;101447.88;;;8.08;49.63
40954;BME280;26686;50.130;8.710;2023-04-03T08:07:38;101446.84;;;8.10;49.61
40954;BME280;26686;50.130;8.710;2023-04-03T08:12:40;101440.63;;;8.11;49.28
40954;BME280;26686;50.130;8.710;2023-04-03T08:17:41;101441.47;;;8.29;48.90
40954;BME280;26686;50.130;8.710;2023-04-03T08:22:43;101435.44;;;8.43;48.82
40954;BME280;26686;50.130;8.710;2023-04-03T08:27:45;101426.31;;;8.49;47.71
40954;BME280;26686;50.130;8.710;2023-04-03T08:32:47;101432.53;;;8.65;46.49
40954;BME280;26686;50.130;8.710;2023-04-03T08:37:48;101424.78;;;8.78;47.33
40954;BME280;26686;50.130;8.710;2023-04-03T08:48:30;101424.28;;;9.19;45.25
40954;BME280;26686;50.130;8.710;2023-04-03T08:53:36;101411.75;;;9.37;44.13
40954;BME280;26686;50.130;8.710;2023-04-03T08:58:50;101432.13;;;9.69;44.02
40954;BME280;26686;50.130;8.710;2023-04-03T09:03:54;101431.03;;;9.87;43.96
40954;BME280;26686;50.130;8.710;2023-04-03T09:24:58;101410.78;;;10.30;41.79
40954;BME280;26686;50.130;8.710;2023-04-03T09:30:01;101436.63;;;10.27;41.33
40954;BME280;26686;50.130;8.710;2023-04-03T09:35:15;101428.25;;;10.78;41.72
40954;BME280;26686;50.130;8.710;2023-04-03T09:40:38;101416.28;;;11.13;39.84
40954;BME280;26686;50.130;8.710;2023-04-03T09:45:40;101421.03;;;11.22;39.21
40954;BME280;26686;50.130;8.710;2023-04-03T09:55:55;101406.81;;;10.94;39.93
40954;BME280;26686;50.130;8.710;2023-04-03T10:00:58;101402.06;;;11.54;39.19
40954;BME280;26686;50.130;8.710;2023-04-03T10:06:00;101407.34;;;12.34;37.91
40954;BME280;26686;50.130;8.710;2023-04-03T10:11:20;101399.88;;;13.02;36.30
40954;BME280;26686;50.130;8.710;2023-04-03T10:16:48;101393.50;;;12.92;35.69
40954;BME280;26686;50.130;8.710;2023-04-03T10:21:58;101405.28;;;14.22;33.66
40954;BME280;26686;50.130;8.710;2023-04-03T10:27:18;101386.25;;;17.83;27.87
40954;BME280;26686;50.130;8.710;2023-04-03T10:37:27;101389.78;;;17.74;27.84
40954;BME280;26686;50.130;8.710;2023-04-03T10:42:39;101403.63;;;17.01;28.30
40954;BME280;26686;50.130;8.710;2023-04-03T10:48:26;101388.81;;;17.46;27.61
40954;BME280;26686;50.130;8.710;2023-04-03T10:53:40;101380.63;;;18.34;26.17
40954;BME280;26686;50.130;8.710;2023-04-03T10:58:48;101370.88;;;23.12;21.58
40954;BME280;26686;50.130;8.710;2023-04-03T11:03:54;101360.16;;;24.78;18.29
40954;BME280;26686;50.130;8.710;2023-04-03T11:09:05;101362.34;;;26.13;17.03
40954;BME280;26686;50.130;8.710;2023-04-03T11:14:28;101361.63;;;27.36;15.73
40954;BME280;26686;50.130;8.710;2023-04-03T11:24:58;101343.25;;;28.88;14.37
40954;BME280;26686;50.130;8.710;2023-04-03T11:30:07;101335.31;;;30.01;13.58
40954;BME280;26686;50.130;8.710;2023-04-03T11:35:11;101335.97;;;30.40;12.99
40954;BME280;26686;50.130;8.710;2023-04-03T11:50:32;101338.34;;;31.94;11.38
40954;BME280;26686;50.130;8.710;2023-04-03T12:01:05;101318.75;;;32.42;11.49
40954;BME280;26686;50.130;8.710;2023-04-03T12:37:42;101291.41;;;31.77;12.08
40954;BME280;26686;50.130;8.710;2023-04-03T12:48:01;101276.09;;;32.04;11.25
40954;BME280;26686;50.130;8.710;2023-04-03T12:53:10;101272.69;;;30.77;11.47
40954;BME280;26686;50.130;8.710;2023-04-03T12:58:14;101255.47;;;28.25;12.51
40954;BME280;26686;50.130;8.710;2023-04-03T13:03:25;101257.94;;;25.19;14.73
40954;BME280;26686;50.130;8.710;2023-04-03T13:08:29;101266.06;;;23.64;17.05
40954;BME280;26686;50.130;8.710;2023-04-03T13:13:32;101248.97;;;21.92;17.62
40954;BME280;26686;50.130;8.710;2023-04-03T13:18:35;101254.94;;;21.30;18.89
40954;BME280;26686;50.130;8.710;2023-04-03T13:23:38;101268.09;;;20.75;19.52
40954;BME280;26686;50.130;8.710;2023-04-03T13:28:45;101254.63;;;20.06;19.61
40954;BME280;26686;50.130;8.710;2023-04-03T13:33:57;101253.69;;;19.19;20.35
40954;BME280;26686;50.130;8.710;2023-04-03T13:49:32;101247.47;;;17.89;21.05
40954;BME280;26686;50.130;8.710;2023-04-03T13:54:38;101230.47;;;17.31;22.05
40954;BME280;26686;50.130;8.710;2023-04-03T13:59:44;101244.22;;;16.89;22.44
40954;BME280;26686;50.130;8.710;2023-04-03T14:04:48;101237.22;;;16.57;23.26
40954;BME280;26686;50.130;8.710;2023-04-03T14:09:50;101220.81;;;16.10;23.47
40954;BME280;26686;50.130;8.710;2023-04-03T14:14:52;101228.84;;;16.00;23.98
40954;BME280;26686;50.130;8.710;2023-04-03T14:19:55;101221.09;;;15.55;24.97
40954;BME280;26686;50.130;8.710;2023-04-03T14:24:59;101208.41;;;14.94;24.82
40954;BME280;26686;50.130;8.710;2023-04-03T14:30:02;101220.38;;;14.78;24.82
40954;BME280;26686;50.130;8.710;2023-04-03T14:35:05;101194.28;;;14.48;25.11
40954;BME280;26686;50.130;8.710;2023-04-03T14:40:11;101172.94;;;14.03;26.03
40954;BME280;26686;50.130;8.710;2023-04-03T14:45:14;101198.84;;;13.79;26.97
40954;BME280;26686;50.130;8.710;2023-04-03T14:50:20;101212.13;;;13.23;28.47
40954;BME280;26686;50.130;8.710;2023-04-03T14:55:25;101204.34;;;13.20;27.98
40954;BME280;26686;50.130;8.710;2023-04-03T15:00:27;101194.06;;;13.02;28.10
40954;BME280;26686;50.130;8.710;2023-04-03T15:05:29;101203.84;;;12.79;27.92
40954;BME280;26686;50.130;8.710;2023-04-03T15:10:31;101190.41;;;12.44;28.02
40954;BME280;26686;50.130;8.710;2023-04-03T15:15:38;101210.91;;;12.19;28.75
40954;BME280;26686;50.130;8.710;2023-04-03T15:20:42;101196.31;;;11.99;29.39
40954;BME280;26686;50.130;8.710;2023-04-03T15:25:46;101185.53;;;11.88;29.03
40954;BME280;26686;50.130;8.710;2023-04-03T15:30:48;101203.66;;;11.82;29.64
40954;BME280;26686;50.130;8.710;2023-04-03T15:35:49;101205.78;;;11.90;30.10
40954;BME280;26686;50.130;8.710;2023-04-03T15:40:51;101180.75;;;11.67;29.84
40954;BME280;26686;50.130;8.710;2023-04-03T15:45:52;101188.00;;;11.52;29.98
40954;BME280;26686;50.130;8.710;2023-04-03T15:50:58;101206.13;;;11.60;30.08
40954;BME280;26686;50.130;8.710;2023-04-03T15:55:59;101189.91;;;11.37;30.25
40954;BME280;26686;50.130;8.710;2023-04-03T16:01:02;101199.19;;;11.19;29.87
40954;BME280;26686;50.130;8.710;2023-04-03T16:06:03;101190.84;;;10.98;30.90
40954;BME280;26686;50.130;8.710;2023-04-03T16:11:05;101184.44;;;11.00;30.85
40954;BME280;26686;50.130;8.710;2023-04-03T16:16:09;101218.63;;;10.93;30.22
40954;BME280;26686;50.130;8.710;2023-04-03T16:21:12;101213.50;;;10.90;30.53
40954;BME280;26686;50.130;8.710;2023-04-03T16:26:15;101201.97;;;10.77;31.09
40954;BME280;26686;50.130;8.710;2023-04-03T16:31:19;101214.91;;;10.69;30.71
40954;BME280;26686;50.130;8.710;2023-04-03T16:36:21;101211.19;;;10.44;31.09
40954;BME280;26686;50.130;8.710;2023-04-03T16:41:22;101205.75;;;10.31;31.34
40954;BME280;26686;50.130;8.710;2023-04-03T16:46:24;101194.41;;;10.15;31.46
40954;BME280;26686;50.130;8.710;2023-04-03T16:51:26;101209.72;;;10.11;31.70
40954;BME280;26686;50.130;8.710;2023-04-03T16:56:28;101220.00;;;10.03;32.00
40954;BME280;26686;50.130;8.710;2023-04-03T17:01:30;101196.63;;;9.79;32.33
40954;BME280;26686;50.130;8.710;2023-04-03T17:06:31;101214.28;;;9.66;32.61
40954;BME280;26686;50.130;8.710;2023-04-03T17:11:33;101215.13;;;9.66;33.16
40954;BME280;26686;50.130;8.710;2023-04-03T17:16:37;101218.44;;;9.55;33.24
40954;BME280;26686;50.130;8.710;2023-04-03T17:21:39;101207.44;;;9.47;33.71
40954;BME280;26686;50.130;8.710;2023-04-03T17:26:41;101212.53;;;9.36;33.58
40954;BME280;26686;50.130;8.710;2023-04-03T17:31:43;101230.38;;;9.34;33.72
40954;BME280;26686;50.130;8.710;2023-04-03T17:36:45;101240.13;;;9.19;33.83
40954;BME280;26686;50.130;8.710;2023-04-03T17:41:48;101245.09;;;9.09;34.43
40954;BME280;26686;50.130;8.710;2023-04-03T17:46:50;101247.13;;;8.90;34.41
40954;BME280;26686;50.130;8.710;2023-04-03T17:51:51;101252.78;;;8.99;34.89
40954;BME280;26686;50.130;8.710;2023-04-03T17:56:54;101220.28;;;8.64;35.81
40954;BME280;26686;50.130;8.710;2023-04-03T18:01:55;101256.06;;;8.73;36.33
40954;BME280;26686;50.130;8.710;2023-04-03T18:06:59;101262.56;;;8.51;36.95
40954;BME280;26686;50.130;8.710;2023-04-03T18:12:03;101268.22;;;8.45;37.32
40954;BME280;26686;50.130;8.710;2023-04-03T18:17:06;101265.47;;;8.46;36.93
40954;BME280;26686;50.130;8.710;2023-04-03T18:22:11;101277.31;;;8.23;37.31
40954;BME280;26686;50.130;8.710;2023-04-03T18:27:16;101270.38;;;8.21;37.20
40954;BME280;26686;50.130;8.710;2023-04-03T18:32:20;101280.22;;;8.19;37.19
40954;BME280;26686;50.130;8.710;2023-04-03T18:37:22;101273.09;;;8.03;37.74
40954;BME280;26686;50.130;8.710;2023-04-03T18:42:24;101274.03;;;8.02;37.54
40954;BME280;26686;50.130;8.710;2023-04-03T18:47:27;101281.16;;;8.02;37.66
40954;BME280;26686;50.130;8.710;2023-04-03T18:52:29;101260.91;;;7.83;38.04
40954;BME280;26686;50.130;8.710;2023-04-03T18:57:30;101284.50;;;7.88;38.57
40954;BME280;26686;50.130;8.710;2023-04-03T19:02:32;101293.88;;;7.77;38.48
40954;BME280;26686;50.130;8.710;2023-04-03T19:07:33;101289.22;;;7.65;38.23
40954;BME280;26686;50.130;8.710;2023-04-03T19:12:35;101301.53;;;7.49;38.21
40954;BME280;26686;50.130;8.710;2023-04-03T19:17:36;101312.59;;;7.39;38.02
40954;BME280;26686;50.130;8.710;2023-04-03T19:22:39;101317.59;;;7.28;37.92
40954;BME280;26686;50.130;8.710;2023-04-03T19:27:41;101316.50;;;7.15;38.13
40954;BME280;26686;50.130;8.710;2023-04-03T19:32:42;101319.06;;;7.16;38.31
40954;BME280;26686;50.130;8.710;2023-04-03T19:37:44;101317.19;;;7.18;38.51
40954;BME280;26686;50.130;8.710;2023-04-03T19:42:49;101312.06;;;6.96;38.52
40954;BME280;26686;50.130;8.710;2023-04-03T19:47:51;101318.47;;;6.92;38.59
40954;BME280;26686;50.130;8.710;2023-04-03T19:52:53;101331.41;;;6.98;38.79
40954;BME280;26686;50.130;8.710;2023-04-03T19:58:00;101323.88;;;6.89;38.98
40954;BME280;26686;50.130;8.710;2023-04-03T20:03:02;101323.63;;;6.76;39.44
40954;BME280;26686;50.130;8.710;2023-04-03T20:08:04;101332.13;;;6.83;39.63
40954;BME280;26686;50.130;8.710;2023-04-03T20:13:06;101338.91;;;6.69;40.17
40954;BME280;26686;50.130;8.710;2023-04-03T20:18:13;101342.50;;;6.68;39.92
40954;BME280;26686;50.130;8.710;2023-04-03T20:23:18;101343.56;;;6.64;40.45
40954;BME280;26686;50.130;8.710;2023-04-03T20:28:20;101336.00;;;6.57;40.76
40954;BME280;26686;50.130;8.710;2023-04-03T20:33:23;101337.91;;;6.53;40.33
40954;BME280;26686;50.130;8.710;2023-04-03T20:38:26;101342.50;;;6.49;41.00
40954;BME280;26686;50.130;8.710;2023-04-03T20:43:27;101332.91;;;6.47;40.79
40954;BME280;26686;50.130;8.710;2023-04-03T20:48:30;101337.72;;;6.39;41.32
40954;BME280;26686;50.130;8.710;2023-04-03T20:53:31;101338.97;;;6.30;41.23
40954;BME280;26686;50.130;8.710;2023-04-03T20:58:34;101345.47;;;6.23;41.48
40954;BME280;26686;50.130;8.710;2023-04-03T21:03:35;101342.13;;;6.19;41.86
40954;BME280;26686;50.130;8.710;2023-04-03T21:19:57;101337.59;;;6.02;41.90
40954;BME280;26686;50.130;8.710;2023-04-03T21:24:58;101320.06;;;5.99;42.24
40954;BME280;26686;50.130;8.710;2023-04-03T21:30:00;101332.56;;;5.94;42.47
40954;BME280;26686;50.130;8.710;2023-04-03T21:35:03;101328.50;;;5.87;42.25
40954;BME280;26686;50.130;8.710;2023-04-03T21:40:05;101320.03;;;5.79;43.06
40954;BME280;26686;50.130;8.710;2023-04-03T21:45:08;101326.38;;;5.75;42.68
40954;BME280;26686;50.130;8.710;2023-04-03T21:50:10;101324.94;;;5.68;42.66
40954;BME280;26686;50.130;8.710;2023-04-03T21:55:11;101327.66;;;5.66;42.64
40954;BME280;26686;50.130;8.710;2023-04-03T22:00:15;101324.25;;;5.62;42.46
40954;BME280;26686;50.130;8.710;2023-04-03T22:05:17;101310.41;;;5.57;42.30
40954;BME280;26686;50.130;8.710;2023-04-03T22:10:19;101312.25;;;5.55;42.75
40954;BME280;26686;50.130;8.710;2023-04-03T22:15:21;101319.63;;;5.47;42.51
40954;BME280;26686;50.130;8.710;2023-04-03T22:20:22;101322.41;;;5.44;43.03
40954;BME280;26686;50.130;8.710;2023-04-03T22:25:24;101310.38;;;5.37;42.80
40954;BME280;26686;50.130;8.710;2023-04-03T22:30:25;101312.25;;;5.35;43.15
40954;BME280;26686;50.130;8.710;2023-04-03T22:35:27;101321.84;;;5.36;43.75
40954;BME280;26686;50.130;8.710;2023-04-03T22:40:29;101326.47;;;5.30;43.29
40954;BME280;26686;50.130;8.710;2023-04-03T22:45:31;101329.19;;;5.29;43.70
40954;BME280;26686;50.130;8.710;2023-04-03T22:50:34;101321.59;;;5.21;43.54
40954;BME280;26686;50.130;8.710;2023-04-03T22:55:37;101320.72;;;5.21;43.33
40954;BME280;26686;50.130;8.710;2023-04-03T23:00:38;101321.09;;;5.11;43.45
40954;BME280;26686;50.130;8.710;2023-04-03T23:05:40;101324.03;;;5.04;43.29
40954;BME280;26686;50.130;8.710;2023-04-03T23:10:41;101310.06;;;5.02;43.33
40954;BME280;26686;50.130;8.710;2023-04-03T23:15:43;101322.44;;;5.00;43.84
40954;BME280;26686;50.130;8.710;2023-04-03T23:20:44;101324.41;;;4.94;43.95
40954;BME280;26686;50.130;8.710;2023-04-03T23:25:57;101311.78;;;4.81;43.82
40954;BME280;26686;50.130;8.710;2023-04-03T23:31:03;101328.16;;;4.89;43.95
40954;BME280;26686;50.130;8.710;2023-04-03T23:36:07;101333.59;;;4.84;43.74
40954;BME280;26686;50.130;8.710;2023-04-03T23:41:09;101335.47;;;4.82;43.63
40954;BME280;26686;50.130;8.710;2023-04-03T23:46:11;101336.69;;;4.73;43.95
40954;BME280;26686;50.130;8.710;2023-04-03T23:51:12;101332.25;;;4.74;43.86
40954;BME280;26686;50.130;8.710;2023-04-03T23:56:14;101323.66;;;4.69;44.02
